Nota Bene — FAA4220 — position and weather

sailwx.info

Track history (hours):
 
Tides and Currents Weather Stations Pressure Air Temp Water Temp Dewpoint Dewpoint Depression Visibility Wind Speed Wind Dir Waves Ship Positions

Nota Bene

Last reported at 2017-Oct-11 18:15 UTC. Time now 2017-Nov-17 19:41 UTC.
Position N 47°35' W 003°01'.
Warning: this ship's position is 37 days out of date.

Length 11 m.

Type: Sailing vessel. MMSI: 227120860.

Date/timePositionNaut miles runAvg speedWind from/ knotsBaromVisibWave heightAir tempDewpointWater temp
2017-Oct-11 18:15N 47°35' W 003°01'1 3.9
2017-Oct-11 18:00N 47°34' W 003°01'4 7.1
2017-Oct-11 17:29N 47°31' W 002°58'4 6.4
2017-Oct-11 16:56N 47°29' W 002°54'  
2017-Oct-09 11:54N 46°36' W 001°59'2 5.8
2017-Oct-09 11:30N 46°36' W 001°56'2 3.1
2017-Oct-09 11:01N 46°36' W 001°53'7 0.4
2017-Oct-08 18:51N 46°30' W 001°47'0 0.0
2017-Oct-08 15:13N 46°30' W 001°47'0 1.9
2017-Oct-08 15:00N 46°30' W 001°48'2 3.6
2017-Oct-08 14:30N 46°28' W 001°46'1 3.0
2017-Oct-08 14:00N 46°27' W 001°45'2 3.7
2017-Oct-08 13:30N 46°26' W 001°44'2 3.7
2017-Oct-08 13:00N 46°26' W 001°42'2 4.1
2017-Oct-08 12:30N 46°26' W 001°45'2 4.9
2017-Oct-08 12:00N 46°27' W 001°48'2 4.1
2017-Oct-08 11:30N 46°27' W 001°51'3 5.8
2017-Oct-08 11:00N 46°28' W 001°47'0 0.7
2017-Oct-08 10:30N 46°28' W 001°47'1 1.1
2017-Oct-08 10:00N 46°29' W 001°47'1 0.1
2017-Oct-07 17:57N 46°30' W 001°47'0 0.0
2017-Oct-07 17:30N 46°30' W 001°47'0 0.0
2017-Oct-07 17:00N 46°30' W 001°47'0 0.0
2017-Oct-07 16:30N 46°30' W 001°47'0 0.0
2017-Oct-07 16:00N 46°30' W 001°47'0 0.0
2017-Oct-07 15:30N 46°30' W 001°47'1 2.9
2017-Oct-07 15:00N 46°29' W 001°47'2 3.7
2017-Oct-07 14:30N 46°29' W 001°50'3 5.1
2017-Oct-07 14:00N 46°31' W 001°52'2 4.9
2017-Oct-07 13:30N 46°33' W 001°52'2 3.7
2017-Oct-07 12:59N 46°35' W 001°53'1 3.0
2017-Oct-07 12:30N 46°36' W 001°54'1 1.6
2017-Oct-07 12:00N 46°36' W 001°54'1 1.8
2017-Oct-07 11:29N 46°35' W 001°54'1 2.6
2017-Oct-07 11:00N 46°34' W 001°53'2 3.4
2017-Oct-07 10:30N 46°32' W 001°52'2 4.5
2017-Oct-07 10:00N 46°30' W 001°51'2 4.2
2017-Oct-07 09:30N 46°29' W 001°49'1 2.6
2017-Oct-07 09:00N 46°29' W 001°47'1 1.5
2017-Oct-07 08:30N 46°29' W 001°47'1 0.0
2017-Oct-06 13:11N 46°30' W 001°47'0 0.0
2017-Oct-06 13:00N 46°30' W 001°47'1 2.3
2017-Oct-06 12:30N 46°29' W 001°47'2 4.7
2017-Oct-06 12:00N 46°29' W 001°50'3 5.3
2017-Oct-06 11:30N 46°28' W 001°47'3 6.1
2017-Oct-06 11:00N 46°26' W 001°43'1 1.4
2017-Oct-06 10:30N 46°26' W 001°44'3 6.4
2017-Oct-06 10:00N 46°28' W 001°48'1 1.7
2017-Oct-06 09:30N 46°29' W 001°49'1 2.8
2017-Oct-06 09:00N 46°28' W 001°47'0 0.8
2017-Oct-06 08:30N 46°28' W 001°47'2 3.2
2017-Oct-06 08:00N 46°30' W 001°48'0 0.0
2017-Oct-05 20:53N 46°30' W 001°47'0 0.0
2017-Oct-05 20:29N 46°30' W 001°47'0 0.0
2017-Oct-05 19:56N 46°30' W 001°47'0 0.0
2017-Oct-05 19:29N 46°30' W 001°47'0 0.0
2017-Oct-05 18:59N 46°30' W 001°47'0 0.0
2017-Oct-05 18:29N 46°30' W 001°47'0 0.0
2017-Oct-05 17:59N 46°30' W 001°47'0 0.0
2017-Oct-05 17:29N 46°30' W 001°47'0 0.0
2017-Oct-05 16:59N 46°30' W 001°47'0 0.0
2017-Oct-04 12:22N 46°30' W 001°47'0 0.7
2017-Oct-04 12:00N 46°30' W 001°48'1 2.9
2017-Oct-04 11:30N 46°29' W 001°49'2 4.3
2017-Oct-04 11:00N 46°29' W 001°51'2 4.8
2017-Oct-04 10:30N 46°31' W 001°54'3 5.3
2017-Oct-04 10:00N 46°33' W 001°57'71 1.5
2017-Oct-02 11:22N 47°33' W 002°54'0 0.0
2017-Oct-02 10:49N 47°33' W 002°54'1 1.2
2017-Oct-02 10:22N 47°32' W 002°54'2 3.8
2017-Oct-02 09:58N 47°31' W 002°53'2 3.7
2017-Oct-02 09:29N 47°29' W 002°55'1 2.7
2017-Oct-02 08:57N 47°31' W 002°55'1 2.8
2017-Oct-02 08:30N 47°31' W 002°53'  
Track history (hours):
 
Tides and Currents Weather Stations Pressure Air Temp Water Temp Dewpoint Dewpoint Depression Visibility Wind Speed Wind Dir Waves Ship Positions

Nota Bene

Last reported at 2017-Oct-11 18:15 UTC. Time now 2017-Nov-17 19:41 UTC.
Position N 47°35' W 003°01'.
Warning: this ship's position is 37 days out of date.

Length 11 m.

Type: Sailing vessel. MMSI: 227120860.

Date/timePositionNaut miles runAvg speedWind from/ knotsBaromVisibWave heightAir tempDewpointWater temp
2017-Oct-11 18:15N 47°35' W 003°01'1 3.9
2017-Oct-11 18:00N 47°34' W 003°01'4 7.1
2017-Oct-11 17:29N 47°31' W 002°58'4 6.4
2017-Oct-11 16:56N 47°29' W 002°54'  
2017-Oct-09 11:54N 46°36' W 001°59'2 5.8
2017-Oct-09 11:30N 46°36' W 001°56'2 3.1
2017-Oct-09 11:01N 46°36' W 001°53'7 0.4
2017-Oct-08 18:51N 46°30' W 001°47'0 0.0
2017-Oct-08 15:13N 46°30' W 001°47'0 1.9
2017-Oct-08 15:00N 46°30' W 001°48'2 3.6
2017-Oct-08 14:30N 46°28' W 001°46'1 3.0
2017-Oct-08 14:00N 46°27' W 001°45'2 3.7
2017-Oct-08 13:30N 46°26' W 001°44'2 3.7
2017-Oct-08 13:00N 46°26' W 001°42'2 4.1
2017-Oct-08 12:30N 46°26' W 001°45'2 4.9
2017-Oct-08 12:00N 46°27' W 001°48'2 4.1
2017-Oct-08 11:30N 46°27' W 001°51'3 5.8
2017-Oct-08 11:00N 46°28' W 001°47'0 0.7
2017-Oct-08 10:30N 46°28' W 001°47'1 1.1
2017-Oct-08 10:00N 46°29' W 001°47'1 0.1
2017-Oct-07 17:57N 46°30' W 001°47'0 0.0
2017-Oct-07 17:30N 46°30' W 001°47'0 0.0
2017-Oct-07 17:00N 46°30' W 001°47'0 0.0
2017-Oct-07 16:30N 46°30' W 001°47'0 0.0
2017-Oct-07 16:00N 46°30' W 001°47'0 0.0
2017-Oct-07 15:30N 46°30' W 001°47'1 2.9
2017-Oct-07 15:00N 46°29' W 001°47'2 3.7
2017-Oct-07 14:30N 46°29' W 001°50'3 5.1
2017-Oct-07 14:00N 46°31' W 001°52'2 4.9
2017-Oct-07 13:30N 46°33' W 001°52'2 3.7
2017-Oct-07 12:59N 46°35' W 001°53'1 3.0
2017-Oct-07 12:30N 46°36' W 001°54'1 1.6
2017-Oct-07 12:00N 46°36' W 001°54'1 1.8
2017-Oct-07 11:29N 46°35' W 001°54'1 2.6
2017-Oct-07 11:00N 46°34' W 001°53'2 3.4
2017-Oct-07 10:30N 46°32' W 001°52'2 4.5
2017-Oct-07 10:00N 46°30' W 001°51'2 4.2
2017-Oct-07 09:30N 46°29' W 001°49'1 2.6
2017-Oct-07 09:00N 46°29' W 001°47'1 1.5
2017-Oct-07 08:30N 46°29' W 001°47'1 0.0
2017-Oct-06 13:11N 46°30' W 001°47'0 0.0
2017-Oct-06 13:00N 46°30' W 001°47'1 2.3
2017-Oct-06 12:30N 46°29' W 001°47'2 4.7
2017-Oct-06 12:00N 46°29' W 001°50'3 5.3
2017-Oct-06 11:30N 46°28' W 001°47'3 6.1
2017-Oct-06 11:00N 46°26' W 001°43'1 1.4
2017-Oct-06 10:30N 46°26' W 001°44'3 6.4
2017-Oct-06 10:00N 46°28' W 001°48'1 1.7
2017-Oct-06 09:30N 46°29' W 001°49'1 2.8
2017-Oct-06 09:00N 46°28' W 001°47'0 0.8
2017-Oct-06 08:30N 46°28' W 001°47'2 3.2
2017-Oct-06 08:00N 46°30' W 001°48'0 0.0
2017-Oct-05 20:53N 46°30' W 001°47'0 0.0
2017-Oct-05 20:29N 46°30' W 001°47'0 0.0
2017-Oct-05 19:56N 46°30' W 001°47'0 0.0
2017-Oct-05 19:29N 46°30' W 001°47'0 0.0
2017-Oct-05 18:59N 46°30' W 001°47'0 0.0
2017-Oct-05 18:29N 46°30' W 001°47'0 0.0
2017-Oct-05 17:59N 46°30' W 001°47'0 0.0
2017-Oct-05 17:29N 46°30' W 001°47'0 0.0
2017-Oct-05 16:59N 46°30' W 001°47'0 0.0
2017-Oct-04 12:22N 46°30' W 001°47'0 0.7
2017-Oct-04 12:00N 46°30' W 001°48'1 2.9
2017-Oct-04 11:30N 46°29' W 001°49'2 4.3
2017-Oct-04 11:00N 46°29' W 001°51'2 4.8
2017-Oct-04 10:30N 46°31' W 001°54'3 5.3
2017-Oct-04 10:00N 46°33' W 001°57'71 1.5
2017-Oct-02 11:22N 47°33' W 002°54'0 0.0
2017-Oct-02 10:49N 47°33' W 002°54'1 1.2
2017-Oct-02 10:22N 47°32' W 002°54'2 3.8
2017-Oct-02 09:58N 47°31' W 002°53'2 3.7
2017-Oct-02 09:29N 47°29' W 002°55'1 2.7
2017-Oct-02 08:57N 47°31' W 002°55'1 2.8
2017-Oct-02 08:30N 47°31' W 002°53'  

Dump ship's entire track history